createdAt,value
2022-10-19T00:01:20.390Z,2.13
2022-10-19T00:03:55.731Z,1.92
2022-10-19T00:06:34.758Z,1.67
2022-10-19T00:09:16.485Z,2.42
2022-10-19T00:11:50.630Z,1.80
2022-10-19T00:14:24.602Z,2.15
2022-10-19T00:16:58.159Z,1.98
2022-10-19T00:19:30.154Z,1.70
2022-10-19T00:22:02.051Z,2.45
2022-10-19T00:24:33.972Z,2.15
2022-10-19T00:27:06.422Z,1.50
2022-10-19T00:29:39.194Z,1.90
2022-10-19T00:32:11.113Z,1.05
2022-10-19T00:34:43.142Z,1.83
2022-10-19T00:37:15.081Z,1.83
2022-10-19T00:39:47.204Z,2.65
2022-10-19T00:42:19.176Z,2.00
2022-10-19T00:44:51.035Z,2.78
2022-10-19T00:47:24.709Z,1.70
2022-10-19T00:49:58.154Z,1.92
2022-10-19T00:52:30.834Z,1.58
2022-10-19T00:55:03.527Z,1.90
2022-10-19T00:57:36.574Z,1.75
2022-10-19T01:00:09.675Z,1.60
2022-10-19T01:02:41.631Z,2.28
2022-10-19T01:05:14.644Z,2.05
2022-10-19T01:07:46.604Z,2.03
2022-10-19T01:10:24.951Z,1.92
2022-10-19T01:13:16.954Z,2.97
2022-10-19T01:16:15.059Z,1.85
2022-10-19T01:19:32.511Z,2.60
2022-10-19T01:22:25.722Z,2.10
2022-10-19T01:25:21.869Z,2.20
2022-10-19T01:28:27.694Z,1.77
2022-10-19T01:31:07.443Z,2.25
2022-10-19T01:34:00.056Z,3.30
2022-10-19T01:36:52.524Z,1.83
2022-10-19T01:39:50.116Z,1.58
2022-10-19T01:42:56.934Z,1.38
2022-10-19T01:45:49.028Z,1.85
2022-10-19T01:48:31.625Z,2.85
2022-10-19T01:51:13.874Z,2.00
2022-10-19T01:53:51.816Z,1.48
2022-10-19T01:56:27.679Z,1.92
2022-10-19T01:59:04.292Z,1.60
2022-10-19T02:01:41.300Z,2.20
2022-10-19T02:04:17.951Z,1.80
2022-10-19T02:06:53.470Z,1.98
2022-10-19T02:09:25.567Z,1.77
2022-10-19T02:12:03.774Z,2.00
2022-10-19T02:14:48.121Z,2.20
2022-10-19T02:17:25.749Z,1.58
2022-10-19T02:19:59.221Z,1.40
2022-10-19T02:22:31.908Z,1.83
2022-10-19T02:25:05.583Z,2.63
2022-10-19T02:27:41.962Z,2.35
2022-10-19T02:30:17.370Z,1.77
2022-10-19T02:32:50.346Z,1.75
2022-10-19T02:35:23.086Z,1.55
2022-10-19T02:38:00.327Z,1.63
2022-10-19T02:40:36.633Z,2.47
2022-10-19T02:43:15.197Z,1.75
2022-10-19T02:45:56.810Z,2.40
2022-10-19T02:48:33.279Z,1.63
2022-10-19T02:51:05.838Z,2.05
2022-10-19T02:53:37.790Z,1.95
2022-10-19T02:56:09.823Z,1.83
2022-10-19T02:58:41.744Z,1.65
2022-10-19T03:01:14.752Z,1.85
2022-10-19T03:03:47.136Z,1.80
2022-10-19T03:06:19.170Z,1.90
2022-10-19T03:08:51.401Z,2.72
2022-10-19T03:11:23.510Z,1.63
2022-10-19T03:13:55.420Z,1.83
2022-10-19T03:16:27.445Z,1.63
2022-10-19T03:18:59.441Z,2.00
2022-10-19T03:21:31.397Z,2.15
2022-10-19T03:24:03.347Z,1.85
2022-10-19T03:26:35.217Z,2.08
2022-10-19T03:29:07.283Z,1.83
2022-10-19T03:31:39.275Z,2.08
2022-10-19T03:34:11.342Z,1.92
2022-10-19T03:36:43.323Z,2.00
2022-10-19T03:39:17.107Z,1.40
2022-10-19T03:41:49.096Z,1.58
2022-10-19T03:44:21.128Z,1.80
2022-10-19T03:46:55.833Z,1.45
2022-10-19T03:49:27.815Z,1.65
2022-10-19T03:51:59.891Z,2.45
2022-10-19T03:54:31.917Z,1.60
2022-10-19T03:57:03.900Z,2.08
2022-10-19T03:59:35.865Z,1.13
2022-10-19T04:02:07.845Z,1.67
2022-10-19T04:04:39.841Z,1.67
2022-10-19T04:07:11.844Z,1.60
2022-10-19T04:09:43.991Z,1.48
2022-10-19T04:12:15.909Z,1.98
2022-10-19T04:14:56.703Z,1.42
2022-10-19T04:17:29.767Z,1.95
2022-10-19T04:20:01.694Z,1.90
2022-10-19T04:22:33.777Z,1.50
2022-10-19T04:25:06.817Z,1.83
2022-10-19T04:27:38.836Z,1.70
2022-10-19T04:30:11.402Z,3.03
2022-10-19T04:32:43.412Z,2.92
2022-10-19T04:35:15.528Z,1.70
2022-10-19T04:37:47.586Z,1.45
2022-10-19T04:40:19.486Z,1.83
2022-10-19T04:42:51.478Z,3.03
2022-10-19T04:45:23.392Z,1.70
2022-10-19T04:47:56.788Z,2.00
2022-10-19T04:50:28.738Z,1.73
2022-10-19T04:53:00.671Z,2.55
2022-10-19T04:55:32.611Z,2.20
2022-10-19T04:58:04.523Z,1.70
2022-10-19T05:00:39.110Z,1.85
2022-10-19T05:03:11.169Z,1.70
2022-10-19T05:05:43.384Z,2.63
2022-10-19T05:08:15.377Z,1.42
2022-10-19T05:10:47.834Z,1.85
2022-10-19T05:13:19.829Z,1.70
2022-10-19T05:16:00.228Z,2.20
2022-10-19T05:21:12.487Z,1.40
2022-10-19T05:23:44.984Z,1.73
2022-10-19T05:26:19.670Z,1.55
2022-10-19T05:29:01.630Z,1.35
2022-10-19T05:31:34.950Z,1.88
2022-10-19T05:36:40.832Z,1.67
2022-10-19T05:39:16.132Z,1.50
2022-10-19T05:41:48.443Z,2.70
2022-10-19T05:44:23.784Z,1.70
2022-10-19T05:46:55.727Z,1.42
2022-10-19T05:49:27.890Z,2.08
2022-10-19T05:51:59.834Z,2.00
2022-10-19T05:54:31.868Z,1.58
2022-10-19T05:57:04.145Z,1.40
2022-10-19T05:59:36.056Z,1.35
2022-10-19T06:02:14.193Z,1.30
2022-10-19T06:04:46.159Z,2.13
2022-10-19T06:07:18.161Z,1.42
2022-10-19T06:09:50.213Z,1.13
2022-10-19T06:12:25.002Z,1.30
2022-10-19T06:14:57.178Z,2.20
2022-10-19T06:17:29.872Z,1.45
2022-10-19T06:20:01.838Z,1.52
2022-10-19T06:22:33.772Z,2.05
2022-10-19T06:25:06.315Z,1.25
2022-10-19T06:27:38.635Z,2.20
2022-10-19T06:30:11.647Z,2.35
2022-10-19T06:32:43.574Z,1.58
2022-10-19T06:35:16.292Z,1.30
2022-10-19T06:37:48.183Z,1.92
2022-10-19T06:40:20.194Z,1.30
2022-10-19T06:42:52.294Z,1.30
2022-10-19T06:45:24.342Z,1.10
2022-10-19T06:47:56.268Z,1.48
2022-10-19T06:50:28.276Z,1.50
2022-10-19T06:53:00.450Z,2.08
2022-10-19T06:55:32.364Z,1.35
2022-10-19T06:58:04.642Z,1.45
2022-10-19T07:00:36.615Z,1.90
2022-10-19T07:03:11.537Z,1.23
2022-10-19T07:05:43.552Z,1.50
2022-10-19T07:08:15.562Z,1.45
2022-10-19T07:10:57.787Z,1.40
2022-10-19T07:13:31.169Z,2.97
2022-10-19T07:16:15.860Z,2.20
2022-10-19T07:18:53.507Z,1.40
2022-10-19T07:21:26.065Z,1.60
2022-10-19T07:23:58.208Z,1.50
2022-10-19T07:26:30.651Z,1.50
2022-10-19T07:29:03.351Z,1.20
2022-10-19T07:31:35.676Z,1.60
2022-10-19T07:34:10.272Z,1.77
2022-10-19T07:36:46.157Z,1.48
2022-10-19T07:39:18.235Z,1.40
2022-10-19T07:41:50.200Z,1.67
2022-10-19T07:44:22.210Z,1.70
2022-10-19T07:46:54.168Z,1.50
2022-10-19T07:49:26.167Z,0.95
2022-10-19T07:51:59.130Z,1.50
2022-10-19T07:54:31.031Z,1.65
2022-10-19T07:57:03.030Z,1.58
2022-10-19T07:59:34.957Z,1.30
2022-10-19T08:02:16.378Z,1.23
2022-10-19T08:05:00.255Z,1.20
2022-10-19T08:07:35.183Z,1.65
2022-10-19T08:10:07.809Z,1.40
2022-10-19T08:12:39.781Z,1.17
2022-10-19T08:15:11.750Z,1.30
2022-10-19T08:17:43.656Z,1.27
2022-10-19T08:20:15.621Z,1.23
2022-10-19T08:22:47.650Z,1.30
2022-10-19T08:25:20.169Z,1.30
2022-10-19T08:27:52.684Z,1.50
2022-10-19T08:30:24.727Z,1.00
2022-10-19T08:32:56.648Z,1.55
2022-10-19T08:35:30.333Z,1.38
2022-10-19T08:38:02.982Z,1.13
2022-10-19T08:40:35.000Z,1.38
2022-10-19T08:43:30.408Z,1.42
2022-10-19T08:46:24.845Z,1.50
2022-10-19T08:48:57.096Z,1.05
2022-10-19T08:51:36.122Z,1.05
2022-10-19T08:54:17.012Z,1.30
2022-10-19T08:56:59.554Z,1.20
2022-10-19T09:00:00.377Z,1.05
2022-10-19T09:02:56.423Z,1.27
2022-10-19T09:05:55.145Z,1.00
2022-10-19T09:08:27.955Z,1.05
2022-10-19T09:10:59.991Z,1.02
2022-10-19T09:14:04.073Z,1.10
2022-10-19T09:16:36.584Z,0.90
2022-10-19T09:19:30.190Z,1.10
2022-10-19T09:22:31.646Z,1.20
2022-10-19T09:25:14.958Z,1.23
2022-10-19T09:27:53.667Z,1.17
2022-10-19T09:30:25.692Z,1.10
2022-10-19T09:33:02.364Z,1.00
2022-10-19T09:35:43.734Z,1.20
2022-10-19T09:38:16.962Z,1.80
2022-10-19T09:40:48.928Z,0.98
2022-10-19T09:43:22.157Z,2.20
2022-10-19T09:46:31.845Z,1.83
2022-10-19T09:49:05.821Z,1.05
2022-10-19T09:51:55.966Z,1.50
2022-10-19T09:54:37.551Z,1.45
2022-10-19T09:57:22.006Z,1.13
2022-10-19T09:59:55.126Z,1.63
2022-10-19T10:02:34.723Z,1.00
2022-10-19T10:05:14.511Z,0.98
2022-10-19T10:07:46.539Z,2.05
2022-10-19T10:10:18.337Z,1.30
2022-10-19T10:12:51.954Z,0.88
2022-10-19T10:15:36.688Z,0.90
2022-10-19T10:18:14.953Z,1.02
2022-10-19T10:21:11.209Z,1.10
2022-10-19T10:23:43.143Z,1.00
2022-10-19T10:26:20.080Z,0.88
2022-10-19T10:28:52.095Z,0.73
2022-10-19T10:31:29.806Z,0.80
2022-10-19T10:34:11.024Z,0.90
2022-10-19T10:36:55.204Z,1.08
2022-10-19T10:39:29.250Z,0.93
2022-10-19T10:42:10.606Z,1.20
2022-10-19T10:44:49.647Z,1.33
2022-10-19T10:47:21.649Z,1.17
2022-10-19T10:49:58.707Z,1.10
2022-10-19T10:52:31.659Z,1.33
2022-10-19T10:55:09.662Z,1.35
2022-10-19T10:57:48.418Z,1.67
2022-10-19T11:00:24.121Z,1.00
2022-10-19T11:03:13.549Z,1.80
2022-10-19T11:05:54.170Z,1.27
2022-10-19T11:08:47.165Z,1.75
2022-10-19T11:11:29.569Z,1.33
2022-10-19T11:14:41.123Z,2.22
2022-10-19T11:17:23.814Z,2.13
2022-10-19T11:19:55.817Z,1.25
2022-10-19T11:22:52.730Z,1.10
2022-10-19T11:25:33.080Z,1.40
2022-10-19T11:31:08.771Z,1.00
2022-10-19T11:34:10.623Z,3.75
2022-10-19T11:37:12.546Z,1.15
2022-10-19T11:39:57.197Z,1.08
2022-10-19T11:43:03.369Z,1.80
2022-10-19T11:45:58.424Z,1.70
2022-10-19T11:48:57.857Z,2.03
2022-10-19T11:51:47.184Z,1.55
2022-10-19T11:54:54.617Z,1.20
2022-10-19T11:57:29.003Z,1.60
2022-10-19T12:00:27.222Z,1.25
2022-10-19T12:03:47.713Z,1.05
2022-10-19T12:06:54.833Z,1.10
2022-10-19T12:09:59.564Z,1.27
2022-10-19T12:12:37.939Z,1.05
2022-10-19T12:15:21.163Z,1.05
2022-10-19T12:17:57.825Z,1.25
2022-10-19T12:20:39.608Z,1.15
2022-10-19T12:23:34.842Z,1.45
2022-10-19T12:26:11.673Z,1.25
2022-10-19T12:28:51.355Z,1.25
2022-10-19T12:31:25.506Z,1.65
2022-10-19T12:34:39.657Z,1.45
2022-10-19T12:37:44.219Z,1.15
2022-10-19T12:40:38.797Z,1.05
2022-10-19T12:43:41.497Z,1.13
2022-10-19T12:46:38.533Z,1.15
2022-10-19T12:49:29.208Z,0.90
2022-10-19T12:52:02.377Z,1.13
2022-10-19T12:54:38.453Z,2.30
2022-10-19T12:57:48.408Z,1.23
2022-10-19T13:00:25.839Z,1.38
2022-10-19T13:03:05.144Z,1.95
2022-10-19T13:05:37.426Z,2.22
2022-10-19T13:08:12.323Z,2.28
2022-10-19T13:11:08.581Z,1.40
2022-10-19T13:14:26.293Z,1.23
2022-10-19T13:17:00.683Z,1.10
2022-10-19T13:19:32.696Z,1.33
2022-10-19T13:22:27.492Z,1.13
2022-10-19T13:25:29.856Z,1.10
2022-10-19T13:28:07.950Z,1.42
2022-10-19T13:30:39.797Z,1.70
2022-10-19T13:33:29.895Z,1.30
2022-10-19T13:36:02.569Z,1.52
2022-10-19T13:38:44.161Z,1.40
2022-10-19T13:41:25.307Z,1.10
2022-10-19T13:44:22.072Z,1.95
2022-10-19T13:47:39.220Z,2.17
2022-10-19T13:50:22.867Z,1.08
2022-10-19T13:53:19.080Z,2.03
2022-10-19T13:56:24.316Z,1.38
2022-10-19T13:59:59.346Z,1.92
2022-10-19T14:02:56.449Z,1.45
2022-10-19T14:06:12.581Z,1.25
2022-10-19T14:09:23.301Z,1.13
2022-10-19T14:12:07.076Z,1.10
2022-10-19T14:17:42.591Z,1.25
2022-10-19T14:20:34.360Z,1.33
2022-10-19T14:23:29.704Z,1.10
2022-10-19T14:26:06.679Z,1.10
2022-10-19T14:28:40.359Z,1.40
2022-10-19T14:31:26.417Z,1.10
2022-10-19T14:34:02.750Z,1.38
2022-10-19T14:36:40.026Z,1.30
2022-10-19T14:39:38.531Z,1.52
2022-10-19T14:42:10.996Z,1.92
2022-10-19T14:44:44.277Z,1.77
2022-10-19T14:47:23.384Z,1.40
2022-10-19T14:49:55.358Z,1.42
2022-10-19T14:52:37.820Z,1.30
2022-10-19T14:55:18.032Z,1.38
2022-10-19T14:57:53.006Z,2.20
2022-10-19T15:03:25.780Z,1.27
2022-10-19T15:06:05.693Z,1.98
2022-10-19T15:08:44.001Z,1.33
2022-10-19T15:11:31.001Z,1.20
2022-10-19T15:14:27.214Z,1.27
2022-10-19T15:17:02.313Z,1.13
2022-10-19T15:19:41.285Z,2.15
2022-10-19T15:22:22.150Z,1.50
2022-10-19T15:25:16.602Z,2.47
2022-10-19T15:27:50.902Z,1.83
2022-10-19T15:30:29.911Z,1.95
2022-10-19T15:33:01.758Z,1.70
2022-10-19T15:35:36.268Z,2.47
2022-10-19T15:38:14.840Z,1.70
2022-10-19T15:40:48.312Z,1.85
2022-10-19T15:43:35.024Z,2.10
2022-10-19T15:46:35.946Z,1.85
2022-10-19T15:49:16.962Z,2.30
2022-10-19T15:51:52.011Z,1.90
2022-10-19T15:54:26.665Z,2.55
2022-10-19T15:56:59.360Z,2.72
2022-10-19T15:59:31.340Z,2.20
2022-10-19T16:02:13.053Z,1.88
2022-10-19T16:04:45.020Z,2.05
2022-10-19T16:07:27.541Z,2.20
2022-10-19T16:09:59.962Z,1.95
2022-10-19T16:12:32.053Z,2.53
2022-10-19T16:15:04.329Z,2.97
2022-10-19T16:17:36.627Z,4.00
2022-10-19T16:20:11.196Z,5.13
2022-10-19T16:22:44.468Z,5.18
2022-10-19T16:25:17.479Z,5.25
2022-10-19T16:27:49.445Z,4.25
2022-10-19T16:30:21.562Z,3.97
2022-10-19T16:32:53.446Z,3.60
2022-10-19T16:35:25.512Z,4.53
2022-10-19T16:37:59.087Z,3.85
2022-10-19T16:40:31.339Z,4.25
2022-10-19T16:43:03.481Z,4.95
2022-10-19T16:45:35.862Z,4.22
2022-10-19T16:48:07.857Z,5.22
2022-10-19T16:50:39.956Z,4.53
2022-10-19T16:53:12.342Z,4.10
2022-10-19T16:55:44.311Z,4.07
2022-10-19T16:58:16.198Z,4.38
2022-10-19T17:00:48.154Z,3.95
2022-10-19T17:03:20.065Z,4.70
2022-10-19T17:05:51.995Z,4.18
2022-10-19T17:08:36.753Z,5.50
2022-10-19T17:11:14.442Z,5.38
2022-10-19T17:13:48.720Z,5.18
2022-10-19T17:16:22.366Z,4.05
2022-10-19T17:18:59.644Z,3.97
2022-10-19T17:21:34.640Z,4.10
2022-10-19T17:24:15.582Z,3.58
2022-10-19T17:26:51.295Z,3.42
2022-10-19T17:29:23.945Z,3.15
2022-10-19T17:31:55.945Z,3.60
2022-10-19T17:34:27.982Z,4.20
2022-10-19T17:36:59.971Z,3.90
2022-10-19T17:39:32.113Z,3.90
2022-10-19T17:42:05.031Z,4.60
2022-10-19T17:44:36.994Z,4.35
2022-10-19T17:47:09.014Z,4.97
2022-10-19T17:49:41.047Z,5.38
2022-10-19T17:52:13.127Z,4.80
2022-10-19T17:55:00.580Z,4.90
2022-10-19T17:57:37.423Z,5.00
2022-10-19T18:00:10.234Z,4.82
2022-10-19T18:02:45.200Z,4.97
2022-10-19T18:05:17.405Z,5.32
2022-10-19T18:07:51.447Z,5.25
2022-10-19T18:10:23.352Z,5.10
2022-10-19T18:12:55.313Z,4.72
2022-10-19T18:15:27.285Z,5.20
2022-10-19T18:17:59.496Z,5.60
2022-10-19T18:20:31.481Z,5.97
2022-10-19T18:23:03.547Z,5.50
2022-10-19T18:25:53.431Z,5.68
2022-10-19T18:28:26.066Z,5.72
2022-10-19T18:31:13.422Z,5.22
2022-10-19T18:33:50.272Z,5.63
2022-10-19T18:36:22.272Z,6.28
2022-10-19T18:38:58.027Z,5.72
2022-10-19T18:41:30.327Z,5.43
2022-10-19T18:44:05.393Z,5.30
2022-10-19T18:46:37.793Z,5.60
2022-10-19T18:49:11.672Z,5.13
2022-10-19T18:51:43.675Z,5.40
2022-10-19T18:54:15.705Z,5.30
2022-10-19T18:56:47.634Z,4.97
2022-10-19T18:59:20.290Z,5.10
2022-10-19T19:01:52.448Z,5.00
2022-10-19T19:04:24.420Z,5.65
2022-10-19T19:06:56.544Z,5.10
2022-10-19T19:09:28.501Z,5.50
2022-10-19T19:12:01.255Z,6.60
2022-10-19T19:14:33.393Z,5.88
2022-10-19T19:17:05.341Z,6.10
2022-10-19T19:19:37.338Z,5.97
2022-10-19T19:22:09.290Z,6.43
2022-10-19T19:24:42.157Z,5.35
2022-10-19T19:27:14.223Z,5.80
2022-10-19T19:29:46.159Z,5.00
2022-10-19T19:32:18.117Z,5.50
2022-10-19T19:34:54.581Z,5.43
2022-10-19T19:37:26.927Z,5.63
2022-10-19T19:39:58.876Z,5.72
2022-10-19T19:42:30.822Z,5.28
2022-10-19T19:45:02.741Z,5.30
2022-10-19T19:47:34.890Z,6.32
2022-10-19T19:50:08.230Z,6.00
2022-10-19T19:52:40.644Z,6.15
2022-10-19T19:55:12.711Z,5.75
2022-10-19T19:57:47.924Z,5.75
2022-10-19T20:00:24.073Z,5.88
2022-10-19T20:02:58.795Z,5.70
2022-10-19T20:05:32.366Z,5.65
2022-10-19T20:08:04.508Z,4.63
2022-10-19T20:10:41.467Z,5.30
2022-10-19T20:13:13.423Z,4.80
2022-10-19T20:15:45.384Z,4.68
2022-10-19T20:18:17.407Z,4.57
2022-10-19T20:20:50.008Z,4.50
2022-10-19T20:23:21.972Z,4.40
2022-10-19T20:25:53.921Z,4.40
2022-10-19T20:28:27.557Z,5.22
2022-10-19T20:31:08.243Z,6.20
2022-10-19T20:33:42.395Z,5.32
2022-10-19T20:36:21.725Z,4.82
2022-10-19T20:38:57.692Z,4.70
2022-10-19T20:41:29.659Z,4.75
2022-10-19T20:44:02.108Z,4.78
2022-10-19T20:46:34.463Z,7.75
2022-10-19T20:49:07.647Z,4.57
2022-10-19T20:51:39.595Z,6.43
2022-10-19T20:54:12.486Z,4.57
2022-10-19T20:56:44.365Z,5.55
2022-10-19T20:59:20.437Z,4.57
2022-10-19T21:01:54.972Z,4.85
2022-10-19T21:04:28.029Z,4.40
2022-10-19T21:07:01.088Z,4.13
2022-10-19T21:09:33.240Z,4.40
2022-10-19T21:12:05.168Z,4.00
2022-10-19T21:14:37.349Z,5.10
2022-10-19T21:17:09.245Z,4.57
2022-10-19T21:19:41.215Z,3.70
2022-10-19T21:22:13.995Z,4.50
2022-10-19T21:24:45.907Z,4.38
2022-10-19T21:27:17.870Z,3.63
2022-10-19T21:29:49.808Z,3.45
2022-10-19T21:32:21.906Z,3.90
2022-10-19T21:34:53.858Z,3.40
2022-10-19T21:37:25.787Z,4.15
2022-10-19T21:39:57.696Z,3.30
2022-10-19T21:42:39.329Z,3.65
2022-10-19T21:45:29.179Z,4.13
2022-10-19T21:48:02.023Z,3.75
2022-10-19T21:50:34.068Z,3.72
2022-10-19T21:53:06.044Z,3.45
2022-10-19T21:55:38.147Z,3.63
2022-10-19T21:58:10.037Z,3.20
2022-10-19T22:00:42.634Z,3.72
2022-10-19T22:06:06.763Z,3.50
2022-10-19T22:08:40.405Z,3.95
2022-10-19T22:11:14.319Z,2.60
2022-10-19T22:13:46.383Z,3.83
2022-10-19T22:16:20.673Z,4.35
2022-10-19T22:18:53.505Z,3.20
2022-10-19T22:21:29.804Z,4.93
2022-10-19T22:24:08.695Z,2.63
2022-10-19T22:26:47.340Z,3.35
2022-10-19T22:29:19.356Z,2.53
2022-10-19T22:31:51.274Z,3.40
2022-10-19T22:34:23.167Z,3.25
2022-10-19T22:36:55.127Z,3.13
2022-10-19T22:39:28.013Z,3.25
2022-10-19T22:42:00.052Z,4.10
2022-10-19T22:44:32.438Z,3.58
2022-10-19T22:47:04.582Z,3.38
2022-10-19T22:49:36.565Z,3.63
2022-10-19T22:52:08.562Z,3.13
2022-10-19T22:54:40.492Z,4.68
2022-10-19T22:57:12.450Z,3.42
2022-10-19T22:59:44.367Z,3.50
2022-10-19T23:02:16.274Z,3.20
2022-10-19T23:04:48.180Z,3.20
2022-10-19T23:07:20.130Z,3.55
2022-10-19T23:09:52.452Z,3.70
2022-10-19T23:12:24.460Z,4.03
2022-10-19T23:14:56.370Z,3.60
2022-10-19T23:17:28.313Z,3.60
2022-10-19T23:20:00.296Z,3.63
2022-10-19T23:22:32.285Z,3.83
2022-10-19T23:25:04.734Z,3.92
2022-10-19T23:27:37.196Z,4.13
2022-10-19T23:30:09.829Z,3.60
2022-10-19T23:32:41.846Z,4.30
2022-10-19T23:35:13.866Z,3.55
2022-10-19T23:37:45.854Z,3.70
2022-10-19T23:40:17.813Z,3.05
2022-10-19T23:42:49.730Z,4.15
2022-10-19T23:45:21.641Z,4.03
2022-10-19T23:47:53.590Z,3.65
2022-10-19T23:50:25.643Z,3.90
2022-10-19T23:52:57.548Z,4.07
2022-10-19T23:55:29.538Z,3.67
2022-10-19T23:58:01.450Z,3.55
